sensor_id;sensor_type;location;lat;lon;timestamp;temperature;humidity
60717;DHT22;46566;52.700;6.192;2023-06-10T00:00:39;19.30;80.50
60717;DHT22;46566;52.700;6.192;2023-06-10T00:03:07;19.30;81.00
60717;DHT22;46566;52.700;6.192;2023-06-10T00:05:34;19.20;83.70
60717;DHT22;46566;52.700;6.192;2023-06-10T00:08:00;19.20;82.10
60717;DHT22;46566;52.700;6.192;2023-06-10T00:10:33;19.20;81.40
60717;DHT22;46566;52.700;6.192;2023-06-10T00:13:00;19.10;82.30
60717;DHT22;46566;52.700;6.192;2023-06-10T00:15:26;19.10;81.80
60717;DHT22;46566;52.700;6.192;2023-06-10T00:17:52;19.10;82.40
60717;DHT22;46566;52.700;6.192;2023-06-10T00:20:18;19.10;83.00
60717;DHT22;46566;52.700;6.192;2023-06-10T00:22:44;19.10;82.50
60717;DHT22;46566;52.700;6.192;2023-06-10T00:25:11;19.00;82.80
60717;DHT22;46566;52.700;6.192;2023-06-10T00:27:36;19.00;81.90
60717;DHT22;46566;52.700;6.192;2023-06-10T00:30:03;19.00;81.90
60717;DHT22;46566;52.700;6.192;2023-06-10T00:32:32;18.90;81.40
60717;DHT22;46566;52.700;6.192;2023-06-10T00:34:58;18.90;81.70
60717;DHT22;46566;52.700;6.192;2023-06-10T00:37:23;18.90;80.80
60717;DHT22;46566;52.700;6.192;2023-06-10T00:39:49;18.80;81.70
60717;DHT22;46566;52.700;6.192;2023-06-10T00:42:15;18.80;82.60
60717;DHT22;46566;52.700;6.192;2023-06-10T00:44:41;18.80;83.80
60717;DHT22;46566;52.700;6.192;2023-06-10T00:47:07;18.70;82.60
60717;DHT22;46566;52.700;6.192;2023-06-10T00:49:33;18.70;83.50
60717;DHT22;46566;52.700;6.192;2023-06-10T00:52:01;18.70;84.20
60717;DHT22;46566;52.700;6.192;2023-06-10T00:54:27;18.70;83.80
60717;DHT22;46566;52.700;6.192;2023-06-10T00:56:53;18.70;84.20
60717;DHT22;46566;52.700;6.192;2023-06-10T00:59:20;18.70;84.40
60717;DHT22;46566;52.700;6.192;2023-06-10T01:01:46;18.60;85.10
60717;DHT22;46566;52.700;6.192;2023-06-10T01:04:13;18.60;85.20
60717;DHT22;46566;52.700;6.192;2023-06-10T01:06:51;18.50;87.60
60717;DHT22;46566;52.700;6.192;2023-06-10T01:12:21;18.40;90.50
60717;DHT22;46566;52.700;6.192;2023-06-10T01:14:51;18.30;91.10
60717;DHT22;46566;52.700;6.192;2023-06-10T01:17:18;18.30;91.40
60717;DHT22;46566;52.700;6.192;2023-06-10T01:22:10;18.20;93.20
60717;DHT22;46566;52.700;6.192;2023-06-10T01:24:37;18.10;93.80
60717;DHT22;46566;52.700;6.192;2023-06-10T01:27:08;18.10;94.90
60717;DHT22;46566;52.700;6.192;2023-06-10T01:30:00;18.10;96.60
60717;DHT22;46566;52.700;6.192;2023-06-10T01:32:41;18.00;96.20
60717;DHT22;46566;52.700;6.192;2023-06-10T01:35:08;18.00;96.80
60717;DHT22;46566;52.700;6.192;2023-06-10T01:37:38;17.90;99.10
60717;DHT22;46566;52.700;6.192;2023-06-10T01:40:06;17.90;98.30
60717;DHT22;46566;52.700;6.192;2023-06-10T01:42:34;17.90;97.50
60717;DHT22;46566;52.700;6.192;2023-06-10T01:45:00;17.90;98.40
60717;DHT22;46566;52.700;6.192;2023-06-10T01:47:26;17.80;99.90
60717;DHT22;46566;52.700;6.192;2023-06-10T01:49:52;17.80;99.30
60717;DHT22;46566;52.700;6.192;2023-06-10T01:52:18;17.80;99.90
60717;DHT22;46566;52.700;6.192;2023-06-10T01:54:43;17.80;99.60
60717;DHT22;46566;52.700;6.192;2023-06-10T01:57:11;17.70;99.90
60717;DHT22;46566;52.700;6.192;2023-06-10T01:59:37;17.70;99.90
60717;DHT22;46566;52.700;6.192;2023-06-10T02:02:04;17.70;99.90
60717;DHT22;46566;52.700;6.192;2023-06-10T02:04:31;17.60;99.90
60717;DHT22;46566;52.700;6.192;2023-06-10T02:06:58;17.60;99.90
60717;DHT22;46566;52.700;6.192;2023-06-10T02:09:25;17.60;99.90
60717;DHT22;46566;52.700;6.192;2023-06-10T02:11:50;17.60;99.90
60717;DHT22;46566;52.700;6.192;2023-06-10T02:14:17;17.50;99.90
60717;DHT22;46566;52.700;6.192;2023-06-10T02:16:42;17.50;99.90
60717;DHT22;46566;52.700;6.192;2023-06-10T02:19:10;17.50;99.90
60717;DHT22;46566;52.700;6.192;2023-06-10T02:21:36;17.40;99.90
60717;DHT22;46566;52.700;6.192;2023-06-10T02:24:02;17.40;99.90
60717;DHT22;46566;52.700;6.192;2023-06-10T02:26:28;17.40;99.90
60717;DHT22;46566;52.700;6.192;2023-06-10T02:28:58;17.30;99.90
60717;DHT22;46566;52.700;6.192;2023-06-10T02:31:24;17.30;99.90
60717;DHT22;46566;52.700;6.192;2023-06-10T02:33:51;17.30;99.90
60717;DHT22;46566;52.700;6.192;2023-06-10T02:36:17;17.30;99.90
60717;DHT22;46566;52.700;6.192;2023-06-10T02:38:43;17.20;99.90
60717;DHT22;46566;52.700;6.192;2023-06-10T02:41:09;17.10;99.90
60717;DHT22;46566;52.700;6.192;2023-06-10T02:43:35;17.10;99.90
60717;DHT22;46566;52.700;6.192;2023-06-10T02:46:01;17.00;99.90
60717;DHT22;46566;52.700;6.192;2023-06-10T02:48:28;17.00;99.90
60717;DHT22;46566;52.700;6.192;2023-06-10T02:50:55;17.00;99.90
60717;DHT22;46566;52.700;6.192;2023-06-10T02:53:31;16.90;99.90
60717;DHT22;46566;52.700;6.192;2023-06-10T02:56:03;16.90;99.90
60717;DHT22;46566;52.700;6.192;2023-06-10T02:58:29;16.90;99.90
60717;DHT22;46566;52.700;6.192;2023-06-10T03:00:56;16.90;99.90
60717;DHT22;46566;52.700;6.192;2023-06-10T03:03:22;16.90;99.90
60717;DHT22;46566;52.700;6.192;2023-06-10T03:06:03;16.80;99.90
60717;DHT22;46566;52.700;6.192;2023-06-10T03:08:29;16.80;99.90
60717;DHT22;46566;52.700;6.192;2023-06-10T03:10:57;16.80;99.90
60717;DHT22;46566;52.700;6.192;2023-06-10T03:13:23;16.70;99.90
60717;DHT22;46566;52.700;6.192;2023-06-10T03:15:49;16.70;99.90
60717;DHT22;46566;52.700;6.192;2023-06-10T03:18:18;16.60;99.90
60717;DHT22;46566;52.700;6.192;2023-06-10T03:20:46;16.60;99.90
60717;DHT22;46566;52.700;6.192;2023-06-10T03:23:13;16.50;99.90
60717;DHT22;46566;52.700;6.192;2023-06-10T03:25:39;16.50;99.90
60717;DHT22;46566;52.700;6.192;2023-06-10T03:28:05;16.50;99.90
60717;DHT22;46566;52.700;6.192;2023-06-10T03:30:31;16.40;99.90
60717;DHT22;46566;52.700;6.192;2023-06-10T03:32:58;16.40;99.90
60717;DHT22;46566;52.700;6.192;2023-06-10T03:35:26;16.40;99.90
60717;DHT22;46566;52.700;6.192;2023-06-10T03:37:52;16.30;99.90
60717;DHT22;46566;52.700;6.192;2023-06-10T03:40:18;16.30;99.90
60717;DHT22;46566;52.700;6.192;2023-06-10T03:42:46;16.30;99.90
60717;DHT22;46566;52.700;6.192;2023-06-10T03:45:14;16.30;99.90
60717;DHT22;46566;52.700;6.192;2023-06-10T03:47:40;16.30;99.90
60717;DHT22;46566;52.700;6.192;2023-06-10T03:50:10;16.20;99.90
60717;DHT22;46566;52.700;6.192;2023-06-10T03:52:39;16.20;99.90
60717;DHT22;46566;52.700;6.192;2023-06-10T03:55:06;16.20;99.90
60717;DHT22;46566;52.700;6.192;2023-06-10T03:57:32;16.20;99.90
60717;DHT22;46566;52.700;6.192;2023-06-10T03:59:58;16.20;99.90
60717;DHT22;46566;52.700;6.192;2023-06-10T04:02:23;16.20;99.90
60717;DHT22;46566;52.700;6.192;2023-06-10T04:04:49;16.20;99.90
60717;DHT22;46566;52.700;6.192;2023-06-10T04:07:17;16.20;99.90
60717;DHT22;46566;52.700;6.192;2023-06-10T04:09:44;16.20;99.90
60717;DHT22;46566;52.700;6.192;2023-06-10T04:12:10;16.20;99.90
60717;DHT22;46566;52.700;6.192;2023-06-10T04:14:36;16.20;99.90
60717;DHT22;46566;52.700;6.192;2023-06-10T04:17:04;16.20;99.90
60717;DHT22;46566;52.700;6.192;2023-06-10T04:19:32;16.20;99.90
60717;DHT22;46566;52.700;6.192;2023-06-10T04:22:01;16.20;99.90
60717;DHT22;46566;52.700;6.192;2023-06-10T04:24:28;16.20;99.90
60717;DHT22;46566;52.700;6.192;2023-06-10T04:26:54;16.20;99.90
60717;DHT22;46566;52.700;6.192;2023-06-10T04:29:20;16.20;99.90
60717;DHT22;46566;52.700;6.192;2023-06-10T04:31:45;16.20;99.90
60717;DHT22;46566;52.700;6.192;2023-06-10T04:34:12;16.20;99.90
60717;DHT22;46566;52.700;6.192;2023-06-10T04:36:38;16.20;99.90
60717;DHT22;46566;52.700;6.192;2023-06-10T04:39:04;16.20;99.90
60717;DHT22;46566;52.700;6.192;2023-06-10T04:41:53;16.20;99.90
60717;DHT22;46566;52.700;6.192;2023-06-10T04:44:19;16.30;99.90
60717;DHT22;46566;52.700;6.192;2023-06-10T04:52:37;16.30;99.90
60717;DHT22;46566;52.700;6.192;2023-06-10T04:55:04;16.30;99.90
60717;DHT22;46566;52.700;6.192;2023-06-10T04:57:54;16.30;99.90
60717;DHT22;46566;52.700;6.192;2023-06-10T05:00:23;16.30;99.90
60717;DHT22;46566;52.700;6.192;2023-06-10T05:15:14;16.50;99.90
60717;DHT22;46566;52.700;6.192;2023-06-10T05:18:04;16.50;99.90
60717;DHT22;46566;52.700;6.192;2023-06-10T05:20:31;16.50;99.90
60717;DHT22;46566;52.700;6.192;2023-06-10T05:22:57;16.50;99.90
60717;DHT22;46566;52.700;6.192;2023-06-10T05:25:22;16.60;99.90
60717;DHT22;46566;52.700;6.192;2023-06-10T05:33:11;16.70;99.90
60717;DHT22;46566;52.700;6.192;2023-06-10T05:35:37;16.70;99.90
60717;DHT22;46566;52.700;6.192;2023-06-10T05:38:15;16.80;99.90
60717;DHT22;46566;52.700;6.192;2023-06-10T05:40:40;16.80;99.90
60717;DHT22;46566;52.700;6.192;2023-06-10T05:43:06;16.80;99.90
60717;DHT22;46566;52.700;6.192;2023-06-10T05:45:32;16.90;99.90
60717;DHT22;46566;52.700;6.192;2023-06-10T05:47:57;17.00;99.90
60717;DHT22;46566;52.700;6.192;2023-06-10T05:50:49;17.00;99.90
60717;DHT22;46566;52.700;6.192;2023-06-10T05:53:15;17.10;99.90
60717;DHT22;46566;52.700;6.192;2023-06-10T05:58:36;17.20;99.90
60717;DHT22;46566;52.700;6.192;2023-06-10T06:01:02;17.20;99.90
60717;DHT22;46566;52.700;6.192;2023-06-10T06:03:27;17.30;99.90
60717;DHT22;46566;52.700;6.192;2023-06-10T06:08:49;17.40;99.90
60717;DHT22;46566;52.700;6.192;2023-06-10T06:11:15;17.40;99.90
60717;DHT22;46566;52.700;6.192;2023-06-10T06:13:41;17.50;99.90
60717;DHT22;46566;52.700;6.192;2023-06-10T06:16:07;17.50;99.90
60717;DHT22;46566;52.700;6.192;2023-06-10T06:18:59;17.60;99.90
60717;DHT22;46566;52.700;6.192;2023-06-10T06:21:24;17.70;99.90
60717;DHT22;46566;52.700;6.192;2023-06-10T06:23:50;17.70;99.90
60717;DHT22;46566;52.700;6.192;2023-06-10T06:26:16;17.80;99.90
60717;DHT22;46566;52.700;6.192;2023-06-10T06:29:06;17.80;99.90
60717;DHT22;46566;52.700;6.192;2023-06-10T06:31:32;17.90;99.90
60717;DHT22;46566;52.700;6.192;2023-06-10T06:36:53;18.00;99.90
60717;DHT22;46566;52.700;6.192;2023-06-10T06:39:19;18.10;99.90
60717;DHT22;46566;52.700;6.192;2023-06-10T06:41:46;18.10;99.90
60717;DHT22;46566;52.700;6.192;2023-06-10T06:44:12;18.20;99.90
60717;DHT22;46566;52.700;6.192;2023-06-10T06:46:55;18.20;99.90
60717;DHT22;46566;52.700;6.192;2023-06-10T06:49:21;18.30;99.90
60717;DHT22;46566;52.700;6.192;2023-06-10T06:51:47;18.40;99.90
60717;DHT22;46566;52.700;6.192;2023-06-10T07:00:35;18.50;99.90
60717;DHT22;46566;52.700;6.192;2023-06-10T07:03:01;18.60;99.90
60717;DHT22;46566;52.700;6.192;2023-06-10T07:05:27;18.70;99.90
60717;DHT22;46566;52.700;6.192;2023-06-10T07:07:53;18.70;99.90
60717;DHT22;46566;52.700;6.192;2023-06-10T07:10:46;18.80;99.90
60717;DHT22;46566;52.700;6.192;2023-06-10T07:13:11;18.90;99.90
60717;DHT22;46566;52.700;6.192;2023-06-10T07:15:38;19.00;99.90
60717;DHT22;46566;52.700;6.192;2023-06-10T07:18:04;19.10;99.90
60717;DHT22;46566;52.700;6.192;2023-06-10T07:20:56;19.20;99.90
60717;DHT22;46566;52.700;6.192;2023-06-10T07:23:22;19.30;99.90
60717;DHT22;46566;52.700;6.192;2023-06-10T07:25:47;19.40;99.90
60717;DHT22;46566;52.700;6.192;2023-06-10T07:28:13;19.50;99.90
60717;DHT22;46566;52.700;6.192;2023-06-10T07:33:35;19.70;99.90
60717;DHT22;46566;52.700;6.192;2023-06-10T07:36:02;19.80;99.90
60717;DHT22;46566;52.700;6.192;2023-06-10T07:38:53;19.90;99.90
60717;DHT22;46566;52.700;6.192;2023-06-10T07:41:19;20.10;99.90
60717;DHT22;46566;52.700;6.192;2023-06-10T07:43:45;20.10;99.90
60717;DHT22;46566;52.700;6.192;2023-06-10T07:51:50;20.40;99.90
60717;DHT22;46566;52.700;6.192;2023-06-10T08:00:27;20.80;99.90
60717;DHT22;46566;52.700;6.192;2023-06-10T08:02:53;20.90;99.90
60717;DHT22;46566;52.700;6.192;2023-06-10T08:05:19;21.10;99.90
60717;DHT22;46566;52.700;6.192;2023-06-10T08:08:02;21.10;99.90
60717;DHT22;46566;52.700;6.192;2023-06-10T08:10:27;21.30;99.90
60717;DHT22;46566;52.700;6.192;2023-06-10T08:12:53;21.40;99.90
60717;DHT22;46566;52.700;6.192;2023-06-10T08:15:19;21.50;99.80
60717;DHT22;46566;52.700;6.192;2023-06-10T08:17:44;21.60;99.80
60717;DHT22;46566;52.700;6.192;2023-06-10T08:20:35;21.80;99.70
60717;DHT22;46566;52.700;6.192;2023-06-10T08:23:01;22.00;98.20
60717;DHT22;46566;52.700;6.192;2023-06-10T08:25:27;22.10;97.60
60717;DHT22;46566;52.700;6.192;2023-06-10T08:27:53;22.30;96.20
60717;DHT22;46566;52.700;6.192;2023-06-10T08:30:33;22.60;95.60
60717;DHT22;46566;52.700;6.192;2023-06-10T08:32:59;23.00;93.90
60717;DHT22;46566;52.700;6.192;2023-06-10T08:35:25;23.70;90.40
60717;DHT22;46566;52.700;6.192;2023-06-10T08:37:51;24.50;83.40
60717;DHT22;46566;52.700;6.192;2023-06-10T08:40:16;25.10;80.00
60717;DHT22;46566;52.700;6.192;2023-06-10T08:43:10;25.90;76.30
60717;DHT22;46566;52.700;6.192;2023-06-10T08:45:41;26.60;71.10
60717;DHT22;46566;52.700;6.192;2023-06-10T08:48:10;27.30;67.90
60717;DHT22;46566;52.700;6.192;2023-06-10T08:51:04;27.70;63.90
60717;DHT22;46566;52.700;6.192;2023-06-10T08:53:31;28.30;63.60
60717;DHT22;46566;52.700;6.192;2023-06-10T08:56:03;28.90;62.80
60717;DHT22;46566;52.700;6.192;2023-06-10T08:58:43;29.30;62.60
60717;DHT22;46566;52.700;6.192;2023-06-10T09:01:09;29.80;59.10
60717;DHT22;46566;52.700;6.192;2023-06-10T09:04:01;30.10;59.00
60717;DHT22;46566;52.700;6.192;2023-06-10T09:06:47;30.40;56.50
60717;DHT22;46566;52.700;6.192;2023-06-10T09:09:39;30.70;57.20
60717;DHT22;46566;52.700;6.192;2023-06-10T09:12:24;30.90;54.50
60717;DHT22;46566;52.700;6.192;2023-06-10T09:15:08;31.10;54.00
60717;DHT22;46566;52.700;6.192;2023-06-10T09:18:00;31.20;54.10
60717;DHT22;46566;52.700;6.192;2023-06-10T09:20:26;31.40;53.70
60717;DHT22;46566;52.700;6.192;2023-06-10T09:26:33;32.00;54.10
60717;DHT22;46566;52.700;6.192;2023-06-10T09:29:18;32.30;53.20
60717;DHT22;46566;52.700;6.192;2023-06-10T09:32:09;32.40;53.40
60717;DHT22;46566;52.700;6.192;2023-06-10T09:35:00;32.70;55.00
60717;DHT22;46566;52.700;6.192;2023-06-10T09:41:03;32.90;49.60
60717;DHT22;46566;52.700;6.192;2023-06-10T09:43:54;32.90;51.90
60717;DHT22;46566;52.700;6.192;2023-06-10T09:46:20;33.00;67.40
60717;DHT22;46566;52.700;6.192;2023-06-10T09:55:17;32.70;50.00
60717;DHT22;46566;52.700;6.192;2023-06-10T09:57:59;32.60;51.00
60717;DHT22;46566;52.700;6.192;2023-06-10T10:00:53;32.70;50.80
60717;DHT22;46566;52.700;6.192;2023-06-10T10:03:43;32.90;49.70
60717;DHT22;46566;52.700;6.192;2023-06-10T10:06:34;32.80;50.00
60717;DHT22;46566;52.700;6.192;2023-06-10T10:09:12;32.60;49.30
60717;DHT22;46566;52.700;6.192;2023-06-10T10:12:05;32.70;48.70
60717;DHT22;46566;52.700;6.192;2023-06-10T10:14:50;32.60;49.30
60717;DHT22;46566;52.700;6.192;2023-06-10T10:17:55;32.50;46.60
60717;DHT22;46566;52.700;6.192;2023-06-10T10:23:32;32.30;51.30
60717;DHT22;46566;52.700;6.192;2023-06-10T10:26:34;32.50;50.00
60717;DHT22;46566;52.700;6.192;2023-06-10T10:38:02;32.70;45.80
60717;DHT22;46566;52.700;6.192;2023-06-10T10:40:53;32.40;46.20
60717;DHT22;46566;52.700;6.192;2023-06-10T10:43:46;32.40;45.40
60717;DHT22;46566;52.700;6.192;2023-06-10T10:53:10;32.70;46.00
60717;DHT22;46566;52.700;6.192;2023-06-10T10:56:30;32.80;47.20
60717;DHT22;46566;52.700;6.192;2023-06-10T10:59:14;32.70;50.50
60717;DHT22;46566;52.700;6.192;2023-06-10T11:01:43;32.80;46.80
60717;DHT22;46566;52.700;6.192;2023-06-10T11:04:26;33.00;47.60
60717;DHT22;46566;52.700;6.192;2023-06-10T11:07:19;32.90;45.70
60717;DHT22;46566;52.700;6.192;2023-06-10T11:10:12;32.70;46.40
60717;DHT22;46566;52.700;6.192;2023-06-10T11:12:56;32.70;47.20
60717;DHT22;46566;52.700;6.192;2023-06-10T11:15:44;32.90;46.90
60717;DHT22;46566;52.700;6.192;2023-06-10T11:18:40;32.90;45.70
60717;DHT22;46566;52.700;6.192;2023-06-10T11:21:19;32.70;45.50
60717;DHT22;46566;52.700;6.192;2023-06-10T11:24:13;32.70;45.30
60717;DHT22;46566;52.700;6.192;2023-06-10T11:30:20;33.10;46.80
60717;DHT22;46566;52.700;6.192;2023-06-10T11:33:16;33.20;44.70
60717;DHT22;46566;52.700;6.192;2023-06-10T11:35:57;33.20;45.10
60717;DHT22;46566;52.700;6.192;2023-06-10T11:38:53;33.30;45.40
60717;DHT22;46566;52.700;6.192;2023-06-10T11:41:36;33.20;45.30
60717;DHT22;46566;52.700;6.192;2023-06-10T11:44:27;33.20;43.80
60717;DHT22;46566;52.700;6.192;2023-06-10T11:47:12;33.20;42.80
60717;DHT22;46566;52.700;6.192;2023-06-10T11:50:03;33.20;43.50
60717;DHT22;46566;52.700;6.192;2023-06-10T11:52:30;33.30;43.90
60717;DHT22;46566;52.700;6.192;2023-06-10T11:58:36;33.30;41.90
60717;DHT22;46566;52.700;6.192;2023-06-10T12:09:31;33.40;43.70
60717;DHT22;46566;52.700;6.192;2023-06-10T12:12:15;33.30;42.20
60717;DHT22;46566;52.700;6.192;2023-06-10T12:15:07;33.20;40.70
60717;DHT22;46566;52.700;6.192;2023-06-10T12:24:03;33.60;41.30
60717;DHT22;46566;52.700;6.192;2023-06-10T12:26:55;33.80;41.30
60717;DHT22;46566;52.700;6.192;2023-06-10T12:32:40;33.60;39.60
60717;DHT22;46566;52.700;6.192;2023-06-10T12:38:48;33.30;38.90
60717;DHT22;46566;52.700;6.192;2023-06-10T12:41:37;33.40;39.80
60717;DHT22;46566;52.700;6.192;2023-06-10T12:47:19;33.40;36.80
60717;DHT22;46566;52.700;6.192;2023-06-10T12:56:48;33.60;39.40
60717;DHT22;46566;52.700;6.192;2023-06-10T12:59:34;33.70;37.20
60717;DHT22;46566;52.700;6.192;2023-06-10T13:02:25;33.90;36.80
60717;DHT22;46566;52.700;6.192;2023-06-10T13:05:03;34.00;37.20
60717;DHT22;46566;52.700;6.192;2023-06-10T13:07:29;33.90;35.60
60717;DHT22;46566;52.700;6.192;2023-06-10T13:10:10;33.80;36.20
60717;DHT22;46566;52.700;6.192;2023-06-10T13:12:36;33.90;36.00
60717;DHT22;46566;52.700;6.192;2023-06-10T13:18:35;34.00;36.30
60717;DHT22;46566;52.700;6.192;2023-06-10T13:21:04;34.20;37.20
60717;DHT22;46566;52.700;6.192;2023-06-10T13:27:04;34.30;34.30
60717;DHT22;46566;52.700;6.192;2023-06-10T13:29:29;34.30;34.50
60717;DHT22;46566;52.700;6.192;2023-06-10T14:08:14;33.80;32.40
60717;DHT22;46566;52.700;6.192;2023-06-10T14:11:01;33.90;34.30
60717;DHT22;46566;52.700;6.192;2023-06-10T14:13:52;33.90;33.60
60717;DHT22;46566;52.700;6.192;2023-06-10T14:16:38;33.80;32.50
60717;DHT22;46566;52.700;6.192;2023-06-10T14:19:04;33.70;33.20
60717;DHT22;46566;52.700;6.192;2023-06-10T14:21:49;33.70;33.10
60717;DHT22;46566;52.700;6.192;2023-06-10T14:39:12;33.90;32.30
60717;DHT22;46566;52.700;6.192;2023-06-10T14:41:56;33.90;31.70
60717;DHT22;46566;52.700;6.192;2023-06-10T14:50:26;33.60;32.00
60717;DHT22;46566;52.700;6.192;2023-06-10T14:53:09;33.60;32.30
60717;DHT22;46566;52.700;6.192;2023-06-10T14:55:35;33.60;31.00
60717;DHT22;46566;52.700;6.192;2023-06-10T14:58:26;33.60;31.40
60717;DHT22;46566;52.700;6.192;2023-06-10T15:22:31;33.60;33.20
60717;DHT22;46566;52.700;6.192;2023-06-10T15:24:57;33.50;32.30
60717;DHT22;46566;52.700;6.192;2023-06-10T15:30:40;33.10;31.60
60717;DHT22;46566;52.700;6.192;2023-06-10T15:33:14;32.80;31.30
60717;DHT22;46566;52.700;6.192;2023-06-10T15:35:39;32.80;32.90
60717;DHT22;46566;52.700;6.192;2023-06-10T15:38:23;32.70;32.30
60717;DHT22;46566;52.700;6.192;2023-06-10T15:41:14;32.60;32.60
60717;DHT22;46566;52.700;6.192;2023-06-10T15:46:54;32.60;31.60
60717;DHT22;46566;52.700;6.192;2023-06-10T15:49:45;32.40;32.80
60717;DHT22;46566;52.700;6.192;2023-06-10T15:55:26;32.10;31.90
60717;DHT22;46566;52.700;6.192;2023-06-10T15:58:11;31.80;33.10
60717;DHT22;46566;52.700;6.192;2023-06-10T16:01:02;31.80;40.20
60717;DHT22;46566;52.700;6.192;2023-06-10T16:03:39;31.60;34.10
60717;DHT22;46566;52.700;6.192;2023-06-10T16:06:23;31.60;34.70
60717;DHT22;46566;52.700;6.192;2023-06-10T16:08:49;31.50;36.10
60717;DHT22;46566;52.700;6.192;2023-06-10T16:11:41;31.50;39.80
60717;DHT22;46566;52.700;6.192;2023-06-10T16:14:20;31.30;34.10
60717;DHT22;46566;52.700;6.192;2023-06-10T16:16:46;31.10;33.00
60717;DHT22;46566;52.700;6.192;2023-06-10T16:19:25;31.00;33.90
60717;DHT22;46566;52.700;6.192;2023-06-10T16:21:51;30.80;34.30
60717;DHT22;46566;52.700;6.192;2023-06-10T16:24:34;30.70;35.00
60717;DHT22;46566;52.700;6.192;2023-06-10T16:27:25;30.70;35.60
60717;DHT22;46566;52.700;6.192;2023-06-10T16:30:19;30.70;34.80
60717;DHT22;46566;52.700;6.192;2023-06-10T16:36:28;30.50;33.70
60717;DHT22;46566;52.700;6.192;2023-06-10T16:39:19;30.40;33.80
60717;DHT22;46566;52.700;6.192;2023-06-10T16:45:01;30.40;34.40
60717;DHT22;46566;52.700;6.192;2023-06-10T16:50:59;30.30;34.30
60717;DHT22;46566;52.700;6.192;2023-06-10T16:53:50;30.20;34.50
60717;DHT22;46566;52.700;6.192;2023-06-10T16:56:16;30.30;35.40
60717;DHT22;46566;52.700;6.192;2023-06-10T17:05:13;30.20;34.40
60717;DHT22;46566;52.700;6.192;2023-06-10T17:10:55;30.20;36.40
60717;DHT22;46566;52.700;6.192;2023-06-10T17:13:30;30.30;35.30
60717;DHT22;46566;52.700;6.192;2023-06-10T17:16:21;30.20;35.40
60717;DHT22;46566;52.700;6.192;2023-06-10T17:18:47;30.30;35.40
60717;DHT22;46566;52.700;6.192;2023-06-10T17:24:55;30.20;35.70
60717;DHT22;46566;52.700;6.192;2023-06-10T17:27:30;30.00;34.70
60717;DHT22;46566;52.700;6.192;2023-06-10T17:29:56;30.00;35.60
60717;DHT22;46566;52.700;6.192;2023-06-10T17:32:47;29.90;36.00
60717;DHT22;46566;52.700;6.192;2023-06-10T17:35:38;29.90;36.20
60717;DHT22;46566;52.700;6.192;2023-06-10T17:41:46;29.90;34.50
60717;DHT22;46566;52.700;6.192;2023-06-10T17:44:24;29.90;34.00
60717;DHT22;46566;52.700;6.192;2023-06-10T17:46:51;29.80;34.40
60717;DHT22;46566;52.700;6.192;2023-06-10T17:49:32;29.70;34.00
60717;DHT22;46566;52.700;6.192;2023-06-10T17:52:23;29.70;35.10
60717;DHT22;46566;52.700;6.192;2023-06-10T17:54:49;29.70;35.40
60717;DHT22;46566;52.700;6.192;2023-06-10T18:00:56;29.60;36.30
60717;DHT22;46566;52.700;6.192;2023-06-10T18:03:43;29.60;37.10
60717;DHT22;46566;52.700;6.192;2023-06-10T18:06:33;29.60;37.50
60717;DHT22;46566;52.700;6.192;2023-06-10T18:09:11;29.50;38.00
60717;DHT22;46566;52.700;6.192;2023-06-10T18:11:39;29.50;38.20
60717;DHT22;46566;52.700;6.192;2023-06-10T18:14:19;29.50;38.50
60717;DHT22;46566;52.700;6.192;2023-06-10T18:16:44;29.40;38.60
60717;DHT22;46566;52.700;6.192;2023-06-10T18:19:28;29.30;39.20
60717;DHT22;46566;52.700;6.192;2023-06-10T18:22:19;29.30;40.10
60717;DHT22;46566;52.700;6.192;2023-06-10T18:24:58;29.20;40.30
60717;DHT22;46566;52.700;6.192;2023-06-10T18:27:24;29.10;40.70
60717;DHT22;46566;52.700;6.192;2023-06-10T18:33:03;28.90;41.00
60717;DHT22;46566;52.700;6.192;2023-06-10T18:41:52;28.40;41.80
60717;DHT22;46566;52.700;6.192;2023-06-10T18:44:17;28.30;42.40
60717;DHT22;46566;52.700;6.192;2023-06-10T18:47:00;28.30;42.70
60717;DHT22;46566;52.700;6.192;2023-06-10T18:49:51;28.20;42.70
60717;DHT22;46566;52.700;6.192;2023-06-10T18:52:16;28.10;42.60
60717;DHT22;46566;52.700;6.192;2023-06-10T19:01:37;27.80;43.30
60717;DHT22;46566;52.700;6.192;2023-06-10T19:06:45;27.50;43.70
60717;DHT22;46566;52.700;6.192;2023-06-10T19:09:10;27.40;44.90
60717;DHT22;46566;52.700;6.192;2023-06-10T19:15:18;27.20;44.40
60717;DHT22;46566;52.700;6.192;2023-06-10T19:17:53;27.10;44.70
60717;DHT22;46566;52.700;6.192;2023-06-10T19:20:19;27.00;44.80
60717;DHT22;46566;52.700;6.192;2023-06-10T19:23:02;26.90;45.10
60717;DHT22;46566;52.700;6.192;2023-06-10T19:25:54;26.80;45.00
60717;DHT22;46566;52.700;6.192;2023-06-10T19:28:19;26.70;45.60
60717;DHT22;46566;52.700;6.192;2023-06-10T19:34:26;26.60;45.70
60717;DHT22;46566;52.700;6.192;2023-06-10T19:37:17;26.40;46.50
60717;DHT22;46566;52.700;6.192;2023-06-10T19:42:59;26.20;53.10
60717;DHT22;46566;52.700;6.192;2023-06-10T19:45:33;26.00;54.20
60717;DHT22;46566;52.700;6.192;2023-06-10T19:47:59;25.90;48.40
60717;DHT22;46566;52.700;6.192;2023-06-10T19:50:43;25.80;49.20
60717;DHT22;46566;52.700;6.192;2023-06-10T19:53:34;25.70;49.80
60717;DHT22;46566;52.700;6.192;2023-06-10T19:56:12;25.70;55.00
60717;DHT22;46566;52.700;6.192;2023-06-10T19:58:45;25.50;49.90
60717;DHT22;46566;52.700;6.192;2023-06-10T20:04:52;25.30;51.50
60717;DHT22;46566;52.700;6.192;2023-06-10T20:07:43;25.30;51.10
60717;DHT22;46566;52.700;6.192;2023-06-10T20:15:27;25.00;51.00
60717;DHT22;46566;52.700;6.192;2023-06-10T20:17:53;24.90;51.40
60717;DHT22;46566;52.700;6.192;2023-06-10T20:20:18;24.80;52.60
60717;DHT22;46566;52.700;6.192;2023-06-10T20:22:44;24.70;52.70
60717;DHT22;46566;52.700;6.192;2023-06-10T20:25:10;24.60;52.50
60717;DHT22;46566;52.700;6.192;2023-06-10T20:27:39;24.60;53.30
60717;DHT22;46566;52.700;6.192;2023-06-10T20:30:05;24.50;53.50
60717;DHT22;46566;52.700;6.192;2023-06-10T20:32:31;24.50;53.30
60717;DHT22;46566;52.700;6.192;2023-06-10T20:34:56;24.40;54.60
60717;DHT22;46566;52.700;6.192;2023-06-10T20:37:22;24.30;54.50
60717;DHT22;46566;52.700;6.192;2023-06-10T20:39:48;24.10;55.20
60717;DHT22;46566;52.700;6.192;2023-06-10T20:42:13;24.10;54.70
60717;DHT22;46566;52.700;6.192;2023-06-10T20:44:40;24.00;54.80
60717;DHT22;46566;52.700;6.192;2023-06-10T20:47:06;24.00;54.50
60717;DHT22;46566;52.700;6.192;2023-06-10T20:49:32;24.00;55.90
60717;DHT22;46566;52.700;6.192;2023-06-10T20:51:58;23.90;55.20
60717;DHT22;46566;52.700;6.192;2023-06-10T20:54:23;23.90;55.50
60717;DHT22;46566;52.700;6.192;2023-06-10T20:56:49;23.80;55.80
60717;DHT22;46566;52.700;6.192;2023-06-10T20:59:15;23.80;56.50
60717;DHT22;46566;52.700;6.192;2023-06-10T21:01:40;23.70;56.50